Portada
METAR-TAF:

METAR-TAF

Aeropuertos :

Qeshm, Irán

latitud: 26-45-18N, longitud: 055-54-08E, altitud: 12 m

Observación

El informe se hizo hace 1 hora y 2 minutos, a las 12:00 UTC
Viento 12 kt del este
Temperatura 27°C
Humedad 28%
Presión 1015 hPa
Visibilidad 10 km o más
sin nubes por debajo de 1500 m y sin presencia de cumulonimbus.

METAR: OIKQ 251200Z 08012KT CAVOK 27/07 Q1015 NOSIG

Hora: 16:32 (13:02 UTC)


TAF: falta

Observaciones y pronósticos meteorológicos de más de 4000 aeropuertos (mensajes METAR y TAF).

Los puntos amarillos y rojos representan las estaciones disponibles.

Ponga el ratón en el punto deseado para ver el nombre de la estación.

Haga clic para ver las observaciones y los pronósticos meteorológicos.

Para cambiar el mapa : haga clic en los botones verdes con una cruz de color negro para hacer un zoom, en el botón verde con un guión para alejar o en las flechas verdes para mapas adyacentes.


METAR-TAF: